Main page
METAR-TAF:

METAR-TAF

Airports :

Saint-Étienne–Bouthéon Airport

Saint-Etienne, France

latitude: 45-32N, longitude: 004-18E, elevation: 404 m

Current weather observation

The report was made 1 hour and 6 minutes ago, at 11:00 UTC
Wind 3 kt from variable directions
Temperature 0°C
Humidity 93%
Pressure 1018 hPa
Visibility: 6000 m

METAR: LFMH 061100Z AUTO VRB03KT 6000 NSC 00/M01 Q1018

Time: 13:06 (12:06 UTC)


TAF: missing

Weather observations and forecasts of more than 4000 airports (METAR and TAF reports).

The available stations are represented by yellow and red dots on the map.

Hover mouse over dot to see the name of the station.

Then click to see weather observations and forecasts.

To change the map : click on the green buttons with a black cross to zoom in, on the green button with a dash to zoom out, or on the green arrows for adjacent maps.


METAR-TAF: